JST526 YMML-YSSY
Flight info
| Callsign | JST526 |
|---|---|
| Flight time | 1h 9m |
| Altitude | 37000 |
| Route | ML H129 DOSEL Y59 RIVET |
| Aircraft | A320/M-SDE3FGHIRWY/LB1 |
Departure
| Time | 2026-04-21 05:04 |
|---|---|
| Airport | Melbourne Airport (YMML) |
Arrival
| Time | 2026-04-21 06:13 |
|---|---|
| Airport | Sydney Kingsford Smith International Airport (YSSY) |
| Time | Latitude | Longitude | Altitude | Speed | Heading |
|---|---|---|---|---|---|
| 2026-04-21 04:23 | -37.66948 | 144.84365 | 373 ft | 0 kts | 43° |
| 2026-04-21 04:54 | -37.66959 | 144.84353 | 369 ft | 4 kts | 41° |
| 2026-04-21 04:54 | -37.66979 | 144.84331 | 372 ft | 4 kts | 42° |
| 2026-04-21 04:54 | -37.66999 | 144.84308 | 371 ft | 4 kts | 47° |
| 2026-04-21 04:55 | -37.67016 | 144.84282 | 371 ft | 4 kts | 58° |
| 2026-04-21 04:55 | -37.67027 | 144.84252 | 371 ft | 4 kts | 90° |
| 2026-04-21 04:55 | -37.67022 | 144.84232 | 371 ft | 1 kts | 139° |
| 2026-04-21 04:55 | -37.67019 | 144.84229 | 371 ft | 0 kts | 139° |
| 2026-04-21 04:57 | -37.67020 | 144.84230 | 371 ft | 1 kts | 140° |
| 2026-04-21 04:57 | -37.67042 | 144.84239 | 371 ft | 6 kts | 167° |
| 2026-04-21 04:58 | -37.67097 | 144.84251 | 370 ft | 10 kts | 172° |
| 2026-04-21 04:58 | -37.67181 | 144.84266 | 368 ft | 14 kts | 172° |
| 2026-04-21 04:58 | -37.67291 | 144.84286 | 370 ft | 18 kts | 171° |
| 2026-04-21 04:58 | -37.67369 | 144.84301 | 363 ft | 15 kts | 171° |
| 2026-04-21 04:59 | -37.67459 | 144.84318 | 361 ft | 14 kts | 172° |
| 2026-04-21 04:59 | -37.67567 | 144.84338 | 360 ft | 17 kts | 171° |
| 2026-04-21 04:59 | -37.67664 | 144.84356 | 362 ft | 14 kts | 172° |
| 2026-04-21 04:59 | -37.67777 | 144.84378 | 357 ft | 19 kts | 171° |
| 2026-04-21 05:00 | -37.67897 | 144.84400 | 356 ft | 17 kts | 171° |
| 2026-04-21 05:00 | -37.68020 | 144.84422 | 355 ft | 19 kts | 171° |
| 2026-04-21 05:00 | -37.68246 | 144.84466 | 336 ft | 15 kts | 171° |
| 2026-04-21 05:01 | -37.68336 | 144.84471 | 334 ft | 12 kts | 194° |
| 2026-04-21 05:01 | -37.68415 | 144.84415 | 334 ft | 15 kts | 213° |
| 2026-04-21 05:01 | -37.68489 | 144.84352 | 332 ft | 9 kts | 214° |
| 2026-04-21 05:01 | -37.68545 | 144.84291 | 331 ft | 12 kts | 235° |
| 2026-04-21 05:02 | -37.68552 | 144.84250 | 331 ft | 0 kts | 266° |
| 2026-04-21 05:02 | -37.68552 | 144.84243 | 332 ft | 1 kts | 266° |
| 2026-04-21 05:02 | -37.68553 | 144.84224 | 332 ft | 4 kts | 269° |
| 2026-04-21 05:02 | -37.68548 | 144.84179 | 334 ft | 6 kts | 285° |
| 2026-04-21 05:03 | -37.68525 | 144.84121 | 333 ft | 9 kts | 307° |
| 2026-04-21 05:03 | -37.68465 | 144.84077 | 332 ft | 12 kts | 349° |
| 2026-04-21 05:03 | -37.68302 | 144.84047 | 338 ft | 49 kts | 351° |
| 2026-04-21 05:03 | -37.67740 | 144.83943 | 359 ft | 110 kts | 351° |
| 2026-04-21 05:04 | -37.66842 | 144.83779 | 427 ft | 149 kts | 352° |
| 2026-04-21 05:04 | -37.65827 | 144.83575 | 1076 ft | 147 kts | 352° |
| 2026-04-21 05:04 | -37.64815 | 144.83378 | 1730 ft | 147 kts | 352° |
| 2026-04-21 05:04 | -37.63793 | 144.83182 | 2292 ft | 154 kts | 351° |
| 2026-04-21 05:05 | -37.62653 | 144.82964 | 2612 ft | 177 kts | 350° |
| 2026-04-21 05:05 | -37.61353 | 144.82714 | 2943 ft | 202 kts | 351° |
| 2026-04-21 05:05 | -37.59877 | 144.82448 | 3404 ft | 227 kts | 354° |
| 2026-04-21 05:05 | -37.58239 | 144.82788 | 3937 ft | 254 kts | 21° |
| 2026-04-21 05:06 | -37.56608 | 144.83783 | 4734 ft | 265 kts | 23° |
| 2026-04-21 05:06 | -37.54933 | 144.84816 | 5646 ft | 271 kts | 24° |
| 2026-04-21 05:06 | -37.53226 | 144.85861 | 6639 ft | 275 kts | 22° |
| 2026-04-21 05:06 | -37.51495 | 144.86917 | 7519 ft | 279 kts | 24° |
| 2026-04-21 05:07 | -37.49726 | 144.87989 | 8358 ft | 285 kts | 24° |
| 2026-04-21 05:07 | -37.47916 | 144.89082 | 9216 ft | 291 kts | 24° |
| 2026-04-21 05:07 | -37.46076 | 144.90200 | 10072 ft | 296 kts | 25° |
| 2026-04-21 05:07 | -37.44243 | 144.91535 | 10526 ft | 316 kts | 37° |
| 2026-04-21 05:08 | -37.42618 | 144.93487 | 10808 ft | 338 kts | 51° |
| 2026-04-21 05:08 | -37.41236 | 144.95955 | 11360 ft | 348 kts | 56° |
| 2026-04-21 05:08 | -37.39860 | 144.98488 | 12073 ft | 354 kts | 56° |
| 2026-04-21 05:08 | -37.38435 | 145.01028 | 12850 ft | 357 kts | 56° |
| 2026-04-21 05:09 | -37.36981 | 145.03580 | 13592 ft | 361 kts | 55° |
| 2026-04-21 05:09 | -37.35507 | 145.06153 | 14293 ft | 365 kts | 55° |
| 2026-04-21 05:09 | -37.34016 | 145.08761 | 14942 ft | 368 kts | 56° |
| 2026-04-21 05:09 | -37.32517 | 145.11392 | 15578 ft | 371 kts | 56° |
| 2026-04-21 05:10 | -37.31011 | 145.14044 | 16222 ft | 375 kts | 56° |
| 2026-04-21 05:10 | -37.29492 | 145.16722 | 16852 ft | 378 kts | 56° |
| 2026-04-21 05:10 | -37.27957 | 145.19425 | 17471 ft | 382 kts | 56° |
| 2026-04-21 05:10 | -37.26407 | 145.22151 | 18108 ft | 385 kts | 56° |
| 2026-04-21 05:11 | -37.24845 | 145.24899 | 18722 ft | 389 kts | 56° |
| 2026-04-21 05:11 | -37.23288 | 145.27640 | 19271 ft | 392 kts | 56° |
| 2026-04-21 05:11 | -37.21675 | 145.30474 | 19841 ft | 396 kts | 56° |
| 2026-04-21 05:11 | -37.20085 | 145.33262 | 20390 ft | 399 kts | 56° |
| 2026-04-21 05:12 | -37.18462 | 145.36106 | 20937 ft | 403 kts | 56° |
| 2026-04-21 05:12 | -37.16825 | 145.38976 | 21481 ft | 406 kts | 56° |
| 2026-04-21 05:12 | -37.15176 | 145.41868 | 21991 ft | 409 kts | 56° |
| 2026-04-21 05:12 | -37.13512 | 145.44781 | 22511 ft | 413 kts | 56° |
| 2026-04-21 05:13 | -37.11831 | 145.47712 | 23026 ft | 416 kts | 56° |
| 2026-04-21 05:13 | -37.10136 | 145.50661 | 23540 ft | 419 kts | 56° |
| 2026-04-21 05:13 | -37.08426 | 145.53632 | 24022 ft | 422 kts | 56° |
| 2026-04-21 05:13 | -37.06700 | 145.56630 | 24441 ft | 425 kts | 56° |
| 2026-04-21 05:14 | -37.04965 | 145.59645 | 24861 ft | 428 kts | 55° |
| 2026-04-21 05:14 | -37.03220 | 145.62679 | 25275 ft | 431 kts | 55° |
| 2026-04-21 05:14 | -37.01464 | 145.65732 | 25683 ft | 434 kts | 55° |
| 2026-04-21 05:14 | -36.99697 | 145.68799 | 26099 ft | 436 kts | 55° |
| 2026-04-21 05:15 | -36.97912 | 145.71891 | 26508 ft | 439 kts | 55° |
| 2026-04-21 05:15 | -36.96111 | 145.75004 | 26910 ft | 442 kts | 55° |
| 2026-04-21 05:15 | -36.94324 | 145.78090 | 27307 ft | 444 kts | 55° |
| 2026-04-21 05:15 | -36.92503 | 145.81231 | 27691 ft | 448 kts | 55° |
| 2026-04-21 05:16 | -36.90670 | 145.84389 | 28067 ft | 451 kts | 54° |
| 2026-04-21 05:16 | -36.88818 | 145.87574 | 28458 ft | 454 kts | 54° |
| 2026-04-21 05:16 | -36.86961 | 145.90771 | 28854 ft | 456 kts | 54° |
| 2026-04-21 05:16 | -36.85090 | 145.93992 | 29245 ft | 459 kts | 54° |
| 2026-04-21 05:17 | -36.83208 | 145.97233 | 29635 ft | 462 kts | 54° |
| 2026-04-21 05:17 | -36.81313 | 146.00488 | 30015 ft | 465 kts | 54° |
| 2026-04-21 05:17 | -36.79406 | 146.03755 | 30387 ft | 468 kts | 54° |
| 2026-04-21 05:17 | -36.77486 | 146.07048 | 30692 ft | 471 kts | 54° |
| 2026-04-21 05:18 | -36.75551 | 146.10362 | 30985 ft | 474 kts | 54° |
| 2026-04-21 05:18 | -36.73601 | 146.13700 | 31318 ft | 476 kts | 54° |
| 2026-04-21 05:18 | -36.71649 | 146.17044 | 31641 ft | 479 kts | 54° |
| 2026-04-21 05:18 | -36.69683 | 146.20403 | 31997 ft | 480 kts | 54° |
| 2026-04-21 05:19 | -36.67714 | 146.23758 | 32470 ft | 479 kts | 54° |
| 2026-04-21 05:19 | -36.65774 | 146.27061 | 32931 ft | 478 kts | 54° |
| 2026-04-21 05:19 | -36.63810 | 146.30405 | 33405 ft | 477 kts | 54° |
| 2026-04-21 05:19 | -36.61848 | 146.33740 | 33865 ft | 477 kts | 54° |
| 2026-04-21 05:20 | -36.59886 | 146.37072 | 34302 ft | 477 kts | 54° |
| 2026-04-21 05:20 | -36.57927 | 146.40397 | 34696 ft | 476 kts | 54° |
| 2026-04-21 05:20 | -36.55971 | 146.43716 | 35069 ft | 476 kts | 54° |
| 2026-04-21 05:20 | -36.54012 | 146.47041 | 35426 ft | 476 kts | 54° |
| 2026-04-21 05:21 | -36.52049 | 146.50366 | 35780 ft | 476 kts | 54° |
| 2026-04-21 05:21 | -36.50085 | 146.53686 | 36136 ft | 477 kts | 54° |
| 2026-04-21 05:21 | -36.48118 | 146.57002 | 36459 ft | 477 kts | 54° |
| 2026-04-21 05:21 | -36.46148 | 146.60318 | 36780 ft | 477 kts | 54° |
| 2026-04-21 05:22 | -36.44176 | 146.63639 | 37098 ft | 478 kts | 54° |
| 2026-04-21 05:22 | -36.42204 | 146.66960 | 37295 ft | 479 kts | 54° |
| 2026-04-21 05:22 | -36.38244 | 146.73623 | 37310 ft | 479 kts | 54° |
| 2026-04-21 05:23 | -36.34302 | 146.80232 | 37322 ft | 479 kts | 54° |
| 2026-04-21 05:23 | -36.30335 | 146.86869 | 37310 ft | 479 kts | 54° |
| 2026-04-21 05:24 | -36.26372 | 146.93499 | 37319 ft | 479 kts | 54° |
| 2026-04-21 05:24 | -36.22400 | 147.00126 | 37315 ft | 479 kts | 54° |
| 2026-04-21 05:25 | -36.18427 | 147.06751 | 37316 ft | 479 kts | 54° |
| 2026-04-21 05:25 | -36.14446 | 147.13364 | 37327 ft | 480 kts | 54° |
| 2026-04-21 05:26 | -36.10451 | 147.19993 | 37325 ft | 480 kts | 54° |
| 2026-04-21 05:26 | -36.06451 | 147.26601 | 37309 ft | 480 kts | 54° |
| 2026-04-21 05:27 | -36.02448 | 147.33212 | 37313 ft | 480 kts | 54° |
| 2026-04-21 05:27 | -35.98442 | 147.39820 | 37329 ft | 481 kts | 54° |
| 2026-04-21 05:28 | -35.94424 | 147.46428 | 37337 ft | 481 kts | 54° |
| 2026-04-21 05:28 | -35.90439 | 147.52986 | 37318 ft | 481 kts | 54° |
| 2026-04-21 05:29 | -35.86416 | 147.59585 | 37319 ft | 481 kts | 54° |
| 2026-04-21 05:29 | -35.82390 | 147.66168 | 37344 ft | 481 kts | 54° |
| 2026-04-21 05:30 | -35.78359 | 147.72747 | 37319 ft | 481 kts | 54° |
| 2026-04-21 05:30 | -35.74325 | 147.79320 | 37319 ft | 481 kts | 54° |
| 2026-04-21 05:31 | -35.70291 | 147.85895 | 37319 ft | 481 kts | 54° |
| 2026-04-21 05:31 | -35.66246 | 147.92461 | 37325 ft | 482 kts | 54° |
| 2026-04-21 05:32 | -35.62201 | 147.99020 | 37326 ft | 482 kts | 54° |
| 2026-04-21 05:32 | -35.58148 | 148.05584 | 37326 ft | 482 kts | 54° |
| 2026-04-21 05:33 | -35.54093 | 148.12134 | 37325 ft | 482 kts | 54° |
| 2026-04-21 05:33 | -35.50034 | 148.18673 | 37323 ft | 482 kts | 54° |
| 2026-04-21 05:34 | -35.45969 | 148.25211 | 37331 ft | 482 kts | 54° |
| 2026-04-21 05:34 | -35.41921 | 148.31713 | 37333 ft | 482 kts | 54° |
| 2026-04-21 05:35 | -35.37845 | 148.38241 | 37336 ft | 482 kts | 54° |
| 2026-04-21 05:35 | -35.33759 | 148.44776 | 37330 ft | 483 kts | 54° |
| 2026-04-21 05:36 | -35.29671 | 148.51299 | 37350 ft | 483 kts | 54° |
| 2026-04-21 05:36 | -35.25581 | 148.57815 | 37343 ft | 483 kts | 54° |
| 2026-04-21 05:37 | -35.21485 | 148.64336 | 37335 ft | 483 kts | 54° |
| 2026-04-21 05:37 | -35.17395 | 148.70835 | 37331 ft | 482 kts | 54° |
| 2026-04-21 05:38 | -35.13298 | 148.77337 | 37345 ft | 482 kts | 54° |
| 2026-04-21 05:38 | -35.09198 | 148.83826 | 37343 ft | 482 kts | 54° |
| 2026-04-21 05:39 | -35.05091 | 148.90302 | 37333 ft | 482 kts | 54° |
| 2026-04-21 05:39 | -35.01006 | 148.96740 | 37333 ft | 482 kts | 54° |
| 2026-04-21 05:40 | -34.96892 | 149.03220 | 37335 ft | 483 kts | 54° |
| 2026-04-21 05:40 | -34.92770 | 149.09691 | 37352 ft | 483 kts | 54° |
| 2026-04-21 05:41 | -34.88649 | 149.16142 | 37105 ft | 481 kts | 54° |
| 2026-04-21 05:41 | -34.86589 | 149.19358 | 36499 ft | 481 kts | 54° |
| 2026-04-21 05:41 | -34.84542 | 149.22554 | 35543 ft | 479 kts | 54° |
| 2026-04-21 05:42 | -34.82490 | 149.25758 | 34424 ft | 480 kts | 54° |
| 2026-04-21 05:42 | -34.80443 | 149.28959 | 33439 ft | 476 kts | 54° |
| 2026-04-21 05:42 | -34.78420 | 149.32118 | 32648 ft | 472 kts | 54° |
| 2026-04-21 05:42 | -34.76410 | 149.35250 | 32189 ft | 468 kts | 54° |
| 2026-04-21 05:43 | -34.74444 | 149.38380 | 31696 ft | 463 kts | 58° |
| 2026-04-21 05:43 | -34.72804 | 149.41714 | 31199 ft | 457 kts | 65° |
| 2026-04-21 05:43 | -34.71325 | 149.45114 | 30708 ft | 453 kts | 65° |
| 2026-04-21 05:43 | -34.69876 | 149.48448 | 30204 ft | 450 kts | 65° |
| 2026-04-21 05:44 | -34.68417 | 149.51802 | 29660 ft | 446 kts | 65° |
| 2026-04-21 05:44 | -34.66969 | 149.55126 | 29148 ft | 442 kts | 65° |
| 2026-04-21 05:44 | -34.65535 | 149.58413 | 28641 ft | 438 kts | 65° |
| 2026-04-21 05:44 | -34.64112 | 149.61669 | 28177 ft | 434 kts | 65° |
| 2026-04-21 05:45 | -34.62701 | 149.64893 | 27818 ft | 430 kts | 65° |
| 2026-04-21 05:45 | -34.61771 | 149.67017 | 27645 ft | 430 kts | 65° |
| 2026-04-21 05:45 | -34.59896 | 149.71289 | 27261 ft | 425 kts | 65° |
| 2026-04-21 05:45 | -34.58975 | 149.73383 | 26964 ft | 423 kts | 65° |
| 2026-04-21 05:46 | -34.57593 | 149.76521 | 26503 ft | 420 kts | 65° |
| 2026-04-21 05:46 | -34.56219 | 149.79640 | 26070 ft | 417 kts | 65° |
| 2026-04-21 05:46 | -34.54859 | 149.82732 | 25636 ft | 414 kts | 65° |
| 2026-04-21 05:46 | -34.53507 | 149.85808 | 25208 ft | 412 kts | 65° |
| 2026-04-21 05:47 | -34.52162 | 149.88863 | 24803 ft | 409 kts | 65° |
| 2026-04-21 05:47 | -34.50825 | 149.91894 | 24352 ft | 407 kts | 65° |
| 2026-04-21 05:47 | -34.49494 | 149.94909 | 23912 ft | 405 kts | 65° |
| 2026-04-21 05:47 | -34.48166 | 149.97912 | 23426 ft | 402 kts | 65° |
| 2026-04-21 05:48 | -34.46853 | 150.00875 | 22963 ft | 398 kts | 65° |
| 2026-04-21 05:48 | -34.45551 | 150.03814 | 22516 ft | 394 kts | 65° |
| 2026-04-21 05:48 | -34.44259 | 150.06727 | 22052 ft | 391 kts | 65° |
| 2026-04-21 05:48 | -34.42978 | 150.09615 | 21589 ft | 387 kts | 65° |
| 2026-04-21 05:49 | -34.41706 | 150.12478 | 21112 ft | 385 kts | 65° |
| 2026-04-21 05:49 | -34.40441 | 150.15326 | 20635 ft | 383 kts | 65° |
| 2026-04-21 05:49 | -34.39185 | 150.18149 | 20166 ft | 381 kts | 65° |
| 2026-04-21 05:49 | -34.37946 | 150.20933 | 19684 ft | 379 kts | 65° |
| 2026-04-21 05:50 | -34.36697 | 150.23739 | 19207 ft | 377 kts | 64° |
| 2026-04-21 05:50 | -34.35451 | 150.26534 | 18725 ft | 376 kts | 64° |
| 2026-04-21 05:50 | -34.34212 | 150.29313 | 18198 ft | 374 kts | 64° |
| 2026-04-21 05:50 | -34.32979 | 150.32069 | 17716 ft | 370 kts | 64° |
| 2026-04-21 05:51 | -34.31758 | 150.34798 | 17243 ft | 367 kts | 64° |
| 2026-04-21 05:51 | -34.30548 | 150.37502 | 16773 ft | 364 kts | 64° |
| 2026-04-21 05:51 | -34.29347 | 150.40180 | 16301 ft | 361 kts | 64° |
| 2026-04-21 05:51 | -34.28153 | 150.42844 | 15833 ft | 359 kts | 64° |
| 2026-04-21 05:52 | -34.26967 | 150.45491 | 15365 ft | 357 kts | 64° |
| 2026-04-21 05:52 | -34.25791 | 150.48121 | 14899 ft | 355 kts | 64° |
| 2026-04-21 05:52 | -34.24620 | 150.50736 | 14438 ft | 353 kts | 64° |
| 2026-04-21 05:52 | -34.23453 | 150.53344 | 13955 ft | 352 kts | 64° |
| 2026-04-21 05:53 | -34.22295 | 150.55933 | 13469 ft | 349 kts | 64° |
| 2026-04-21 05:53 | -34.21142 | 150.58502 | 13012 ft | 346 kts | 64° |
| 2026-04-21 05:53 | -34.19998 | 150.61050 | 12561 ft | 343 kts | 64° |
| 2026-04-21 05:53 | -34.18862 | 150.63585 | 12108 ft | 341 kts | 64° |
| 2026-04-21 05:54 | -34.17751 | 150.66064 | 11669 ft | 339 kts | 64° |
| 2026-04-21 05:54 | -34.16632 | 150.68561 | 11222 ft | 337 kts | 64° |
| 2026-04-21 05:54 | -34.15511 | 150.71057 | 10486 ft | 338 kts | 64° |
| 2026-04-21 05:54 | -34.14411 | 150.73487 | 10156 ft | 318 kts | 64° |
| 2026-04-21 05:55 | -34.13378 | 150.75757 | 9850 ft | 301 kts | 65° |
| 2026-04-21 05:55 | -34.12390 | 150.77939 | 9655 ft | 295 kts | 64° |
| 2026-04-21 05:55 | -34.11408 | 150.80120 | 9431 ft | 297 kts | 65° |
| 2026-04-21 05:55 | -34.10428 | 150.82303 | 9065 ft | 294 kts | 64° |
| 2026-04-21 05:56 | -34.09459 | 150.84465 | 8767 ft | 293 kts | 65° |
| 2026-04-21 05:56 | -34.08497 | 150.86603 | 8522 ft | 287 kts | 65° |
| 2026-04-21 05:56 | -34.07538 | 150.88735 | 8273 ft | 289 kts | 65° |
| 2026-04-21 05:56 | -34.06581 | 150.90865 | 8021 ft | 288 kts | 65° |
| 2026-04-21 05:57 | -34.05631 | 150.92981 | 7770 ft | 287 kts | 66° |
| 2026-04-21 05:57 | -34.04679 | 150.95095 | 7529 ft | 287 kts | 65° |
| 2026-04-21 05:57 | -34.03730 | 150.97198 | 7280 ft | 284 kts | 65° |
| 2026-04-21 05:57 | -34.02798 | 150.99258 | 7036 ft | 283 kts | 65° |
| 2026-04-21 05:58 | -34.01855 | 151.01341 | 6787 ft | 282 kts | 65° |
| 2026-04-21 05:58 | -34.00927 | 151.03419 | 6531 ft | 282 kts | 65° |
| 2026-04-21 05:58 | -34.00009 | 151.05499 | 6286 ft | 280 kts | 66° |
| 2026-04-21 05:58 | -33.99100 | 151.07565 | 6076 ft | 278 kts | 66° |
| 2026-04-21 05:59 | -33.98189 | 151.09623 | 6002 ft | 278 kts | 66° |
| 2026-04-21 05:59 | -33.97279 | 151.11682 | 6007 ft | 278 kts | 66° |
| 2026-04-21 05:59 | -33.96242 | 151.13644 | 5864 ft | 281 kts | 50° |
| 2026-04-21 06:00 | -33.92662 | 151.15281 | 4996 ft | 285 kts | 353° |
| 2026-04-21 06:00 | -33.90783 | 151.14612 | 4375 ft | 283 kts | 335° |
| 2026-04-21 06:00 | -33.88994 | 151.13632 | 4058 ft | 283 kts | 333° |
| 2026-04-21 06:00 | -33.87209 | 151.12615 | 4013 ft | 284 kts | 333° |
| 2026-04-21 06:01 | -33.85431 | 151.11591 | 4010 ft | 283 kts | 330° |
| 2026-04-21 06:01 | -33.83768 | 151.10348 | 4005 ft | 281 kts | 322° |
| 2026-04-21 06:01 | -33.82158 | 151.09017 | 4004 ft | 280 kts | 323° |
| 2026-04-21 06:01 | -33.80549 | 151.07674 | 4003 ft | 282 kts | 323° |
| 2026-04-21 06:02 | -33.78943 | 151.06329 | 3999 ft | 282 kts | 322° |
| 2026-04-21 06:02 | -33.77327 | 151.04982 | 3999 ft | 283 kts | 323° |
| 2026-04-21 06:02 | -33.75717 | 151.03627 | 3991 ft | 282 kts | 323° |
| 2026-04-21 06:02 | -33.74130 | 151.02263 | 3979 ft | 280 kts | 323° |
| 2026-04-21 06:03 | -33.72545 | 151.00893 | 3981 ft | 281 kts | 323° |
| 2026-04-21 06:03 | -33.70959 | 150.99522 | 3980 ft | 281 kts | 322° |
| 2026-04-21 06:03 | -33.69237 | 150.98427 | 3976 ft | 281 kts | 345° |
| 2026-04-21 06:03 | -33.67305 | 150.98320 | 3854 ft | 279 kts | 13° |
| 2026-04-21 06:04 | -33.65594 | 150.99232 | 3586 ft | 271 kts | 42° |
| 2026-04-21 06:04 | -33.64461 | 151.00955 | 3254 ft | 260 kts | 71° |
| 2026-04-21 06:04 | -33.64118 | 151.03024 | 3003 ft | 250 kts | 91° |
| 2026-04-21 06:04 | -33.64035 | 151.05128 | 2975 ft | 256 kts | 94° |
| 2026-04-21 06:05 | -33.64047 | 151.07264 | 2971 ft | 255 kts | 104° |
| 2026-04-21 06:05 | -33.64753 | 151.09155 | 2985 ft | 246 kts | 134° |
| 2026-04-21 06:05 | -33.66103 | 151.10232 | 2976 ft | 228 kts | 164° |
| 2026-04-21 06:05 | -33.67603 | 151.10650 | 2975 ft | 214 kts | 169° |
| 2026-04-21 06:06 | -33.68990 | 151.10981 | 2977 ft | 192 kts | 169° |
| 2026-04-21 06:06 | -33.70264 | 151.11301 | 2974 ft | 180 kts | 169° |
| 2026-04-21 06:06 | -33.71475 | 151.11611 | 2983 ft | 175 kts | 168° |
| 2026-04-21 06:06 | -33.72630 | 151.11908 | 2997 ft | 162 kts | 169° |
| 2026-04-21 06:07 | -33.73676 | 151.12178 | 2980 ft | 146 kts | 168° |
| 2026-04-21 06:07 | -33.74619 | 151.12421 | 2973 ft | 135 kts | 168° |
| 2026-04-21 06:07 | -33.75519 | 151.12654 | 2995 ft | 131 kts | 168° |
| 2026-04-21 06:07 | -33.76398 | 151.12881 | 2997 ft | 128 kts | 168° |
| 2026-04-21 06:08 | -33.77273 | 151.13107 | 3019 ft | 129 kts | 169° |
| 2026-04-21 06:08 | -33.78159 | 151.13335 | 2954 ft | 128 kts | 168° |
| 2026-04-21 06:08 | -33.79020 | 151.13558 | 2820 ft | 129 kts | 168° |
| 2026-04-21 06:08 | -33.79911 | 151.13788 | 2660 ft | 129 kts | 169° |
| 2026-04-21 06:09 | -33.80762 | 151.14008 | 2501 ft | 127 kts | 168° |
| 2026-04-21 06:09 | -33.81622 | 151.14230 | 2336 ft | 126 kts | 168° |
| 2026-04-21 06:09 | -33.82498 | 151.14456 | 2167 ft | 128 kts | 169° |
| 2026-04-21 06:09 | -33.83356 | 151.14678 | 1993 ft | 125 kts | 168° |
| 2026-04-21 06:10 | -33.84204 | 151.14898 | 1828 ft | 124 kts | 170° |
| 2026-04-21 06:10 | -33.85054 | 151.15117 | 1662 ft | 125 kts | 170° |
| 2026-04-21 06:10 | -33.85901 | 151.15337 | 1492 ft | 125 kts | 168° |
| 2026-04-21 06:10 | -33.86750 | 151.15556 | 1321 ft | 125 kts | 168° |
| 2026-04-21 06:11 | -33.87598 | 151.15775 | 1141 ft | 124 kts | 170° |
| 2026-04-21 06:11 | -33.88437 | 151.15987 | 978 ft | 124 kts | 167° |
| 2026-04-21 06:11 | -33.89281 | 151.16206 | 807 ft | 125 kts | 167° |
| 2026-04-21 06:11 | -33.90141 | 151.16434 | 654 ft | 126 kts | 167° |
| 2026-04-21 06:12 | -33.90983 | 151.16659 | 471 ft | 123 kts | 169° |
| 2026-04-21 06:12 | -33.91813 | 151.16884 | 317 ft | 121 kts | 170° |
| 2026-04-21 06:12 | -33.92658 | 151.17085 | 121 ft | 124 kts | 167° |
| 2026-04-21 06:12 | -33.93483 | 151.17304 | 61 ft | 122 kts | 169° |
| 2026-04-21 06:13 | -33.94262 | 151.17502 | 31 ft | 99 kts | 167° |
| 2026-04-21 06:13 | -33.94774 | 151.17637 | 29 ft | 51 kts | 168° |
| 2026-04-21 06:13 | -33.94985 | 151.17691 | 28 ft | 31 kts | 167° |
| 2026-04-21 06:13 | -33.95135 | 151.17729 | 28 ft | 12 kts | 167° |
| 2026-04-21 06:14 | -33.95209 | 151.17776 | 29 ft | 13 kts | 123° |
| 2026-04-21 06:14 | -33.95210 | 151.17894 | 30 ft | 12 kts | 80° |
| 2026-04-21 06:14 | -33.95159 | 151.17952 | 30 ft | 12 kts | 6° |
| 2026-04-21 06:14 | -33.95068 | 151.17934 | 30 ft | 15 kts | 347° |
| 2026-04-21 06:15 | -33.94957 | 151.17906 | 30 ft | 17 kts | 349° |
| 2026-04-21 06:15 | -33.94849 | 151.17878 | 30 ft | 17 kts | 348° |
| 2026-04-21 06:15 | -33.94752 | 151.17851 | 30 ft | 13 kts | 345° |
| 2026-04-21 06:15 | -33.94654 | 151.17827 | 30 ft | 16 kts | 348° |
| 2026-04-21 06:16 | -33.94556 | 151.17802 | 30 ft | 14 kts | 347° |
| 2026-04-21 06:16 | -33.94455 | 151.17772 | 30 ft | 16 kts | 347° |
| 2026-04-21 06:16 | -33.94356 | 151.17742 | 30 ft | 15 kts | 344° |
| 2026-04-21 06:16 | -33.94245 | 151.17708 | 29 ft | 18 kts | 346° |
| 2026-04-21 06:17 | -33.94159 | 151.17682 | 29 ft | 13 kts | 344° |
| 2026-04-21 06:17 | -33.94060 | 151.17653 | 28 ft | 16 kts | 347° |
| 2026-04-21 06:17 | -33.93940 | 151.17621 | 29 ft | 19 kts | 347° |
| 2026-04-21 06:17 | -33.93808 | 151.17587 | 29 ft | 15 kts | 348° |
| 2026-04-21 06:18 | -33.93721 | 151.17564 | 29 ft | 12 kts | 348° |
| 2026-04-21 06:18 | -33.93663 | 151.17578 | 29 ft | 7 kts | 40° |
| 2026-04-21 06:18 | -33.93642 | 151.17627 | 30 ft | 7 kts | 78° |
| 2026-04-21 06:18 | -33.93646 | 151.17694 | 30 ft | 10 kts | 98° |
| 2026-04-21 06:19 | -33.93657 | 151.17771 | 30 ft | 7 kts | 97° |
| 2026-04-21 06:19 | -33.93622 | 151.17816 | 30 ft | 9 kts | 18° |
| 2026-04-21 06:19 | -33.93572 | 151.17829 | 30 ft | 8 kts | 14° |
| 2026-04-21 06:19 | -33.93544 | 151.17833 | 30 ft | 5 kts | 347° |
| 2026-04-21 06:20 | -33.93528 | 151.17794 | 30 ft | 2 kts | 276° |
| 2026-04-21 06:20 | -33.93525 | 151.17774 | 30 ft | 2 kts | 279° |
| 2026-04-21 06:20 | -33.93524 | 151.17767 | 30 ft | 1 kts | 279° |
| 2026-04-21 06:20 | -33.93524 | 151.17766 | 30 ft | 0 kts | 279° |